createdAt,value
2022-10-08T00:00:27.918Z,98664.81
2022-10-08T00:03:17.144Z,98665.00
2022-10-08T00:06:11.886Z,98675.19
2022-10-08T00:09:06.188Z,98670.81
2022-10-08T00:11:48.925Z,98664.34
2022-10-08T00:14:37.152Z,98664.00
2022-10-08T00:17:25.903Z,98666.44
2022-10-08T00:20:08.145Z,98674.16
2022-10-08T00:22:56.869Z,98677.09
2022-10-08T00:25:39.164Z,98666.94
2022-10-08T00:28:27.915Z,98678.72
2022-10-08T00:31:21.809Z,98670.44
2022-10-08T00:34:13.929Z,98671.13
2022-10-08T00:37:00.192Z,98670.78
2022-10-08T00:39:48.888Z,98660.78
2022-10-08T00:42:31.156Z,98672.38
2022-10-08T00:45:22.961Z,98666.88
2022-10-08T00:48:06.143Z,98668.72
2022-10-08T00:50:55.887Z,98672.59
2022-10-08T00:53:44.781Z,98685.22
2022-10-08T00:56:33.892Z,98681.72
2022-10-08T00:59:18.164Z,98685.13
2022-10-08T01:02:06.931Z,98691.47
2022-10-08T01:04:51.179Z,98694.06
2022-10-08T01:08:13.919Z,98700.00
2022-10-08T01:11:05.144Z,98701.97
2022-10-08T01:14:06.857Z,98704.72
2022-10-08T01:17:07.927Z,98702.81
2022-10-08T01:20:34.874Z,98706.22
2022-10-08T01:23:29.171Z,98705.69
2022-10-08T01:26:39.861Z,98712.06
2022-10-08T01:29:37.154Z,98717.56
2022-10-08T01:32:29.874Z,98725.00
2022-10-08T01:35:17.187Z,98732.63
2022-10-08T01:38:10.874Z,98735.53
2022-10-08T01:41:00.087Z,98737.00
2022-10-08T01:43:54.869Z,98735.22
2022-10-08T01:46:39.159Z,98750.94
2022-10-08T01:49:32.880Z,98743.03
2022-10-08T01:52:22.180Z,98744.91
2022-10-08T01:55:13.893Z,98751.22
2022-10-08T01:58:05.787Z,98749.00
2022-10-08T02:00:58.937Z,98753.22
2022-10-08T02:04:00.928Z,98751.72
2022-10-08T02:06:55.927Z,98760.53
2022-10-08T02:09:41.760Z,98777.44
2022-10-08T02:12:32.839Z,98780.72
2022-10-08T02:15:26.879Z,98783.06
2022-10-08T02:18:28.790Z,98785.34
2022-10-08T02:21:25.869Z,98785.28
2022-10-08T02:24:41.878Z,98782.72
2022-10-08T02:27:31.425Z,98785.16
2022-10-08T02:30:24.867Z,98791.34
2022-10-08T02:33:12.423Z,98808.34
2022-10-08T02:36:05.876Z,98810.13
2022-10-08T02:39:09.874Z,98805.41
2022-10-08T02:41:57.981Z,98808.34
2022-10-08T02:45:00.874Z,98803.44
2022-10-08T02:47:46.183Z,98805.91
2022-10-08T02:50:37.221Z,98809.84
2022-10-08T02:53:22.158Z,98807.78
2022-10-08T02:56:31.926Z,98809.28
2022-10-08T02:59:15.324Z,98816.44
2022-10-08T03:02:07.900Z,98815.69
2022-10-08T03:05:08.839Z,98821.16
2022-10-08T03:08:08.860Z,98823.03
2022-10-08T03:10:58.159Z,98822.81
2022-10-08T03:13:45.954Z,98820.88
2022-10-08T03:16:52.839Z,98826.91
2022-10-08T03:19:42.859Z,98822.19
2022-10-08T03:22:25.143Z,98821.13
2022-10-08T03:25:13.849Z,98822.06
2022-10-08T03:27:58.179Z,98821.38
2022-10-08T03:30:46.990Z,98831.16
2022-10-08T03:33:29.171Z,98832.69
2022-10-08T03:36:17.913Z,98829.50
2022-10-08T03:39:01.153Z,98827.16
2022-10-08T03:41:49.941Z,98818.47
2022-10-08T03:44:38.775Z,98816.69
2022-10-08T03:47:27.940Z,98823.03
2022-10-08T03:50:10.114Z,98827.75
2022-10-08T03:52:59.249Z,98821.97
2022-10-08T03:55:43.134Z,98824.69
2022-10-08T03:58:31.870Z,98824.31
2022-10-08T04:01:28.949Z,98825.50
2022-10-08T04:04:20.643Z,98815.78
2022-10-08T04:07:11.863Z,98823.28
2022-10-08T04:10:00.906Z,98829.25
2022-10-08T04:12:43.231Z,98825.13
2022-10-08T04:15:31.961Z,98826.31
2022-10-08T04:18:21.326Z,98818.66
2022-10-08T04:21:07.858Z,98823.53
2022-10-08T04:23:57.846Z,98822.09
2022-10-08T04:26:46.877Z,98827.69
2022-10-08T04:29:35.897Z,98810.44
2022-10-08T04:32:18.163Z,98815.44
2022-10-08T04:35:06.855Z,98809.38
2022-10-08T04:37:49.145Z,98807.41
2022-10-08T04:40:37.875Z,98808.44
2022-10-08T04:43:20.151Z,98803.78
2022-10-08T04:46:08.897Z,98810.47
2022-10-08T04:49:03.911Z,98802.97
2022-10-08T04:51:52.163Z,98806.69
2022-10-08T04:54:34.957Z,98805.13
2022-10-08T04:57:23.175Z,98800.28
2022-10-08T05:00:18.313Z,98805.69
2022-10-08T05:03:07.241Z,98808.81
2022-10-08T05:05:53.897Z,98804.81
2022-10-08T05:08:43.118Z,98806.03
2022-10-08T05:11:26.866Z,98800.78
2022-10-08T05:14:15.197Z,98804.16
2022-10-08T05:17:09.857Z,98794.38
2022-10-08T05:19:58.150Z,98803.53
2022-10-08T05:22:40.925Z,98804.53
2022-10-08T05:25:29.144Z,98799.41
2022-10-08T05:28:12.895Z,98794.22
2022-10-08T05:31:06.903Z,98793.22
2022-10-08T05:33:49.299Z,98784.25
2022-10-08T05:36:40.880Z,98788.13
2022-10-08T05:39:23.227Z,98787.38
2022-10-08T05:42:11.842Z,98778.72
2022-10-08T05:44:54.129Z,98779.25
2022-10-08T05:47:42.835Z,98775.03
2022-10-08T05:50:25.163Z,98781.97
2022-10-08T05:53:13.915Z,98775.88
2022-10-08T05:55:56.196Z,98779.06
2022-10-08T05:58:46.945Z,98767.94
2022-10-08T06:01:33.320Z,98768.22
2022-10-08T06:04:21.907Z,98767.31
2022-10-08T06:07:04.329Z,98763.53
2022-10-08T06:09:52.864Z,98757.19
2022-10-08T06:12:35.347Z,98751.09
2022-10-08T06:15:24.867Z,98741.50
2022-10-08T06:18:19.719Z,98745.22
2022-10-08T06:21:22.846Z,98740.97
2022-10-08T06:24:08.201Z,98737.72
2022-10-08T06:26:56.839Z,98730.25
2022-10-08T06:29:39.126Z,98727.22
2022-10-08T06:32:28.178Z,98719.31
2022-10-08T06:35:10.199Z,98717.50
2022-10-08T06:37:58.873Z,98720.25
2022-10-08T06:40:51.846Z,98709.72
2022-10-08T06:43:34.069Z,98709.75
2022-10-08T06:46:22.905Z,98709.06
2022-10-08T06:49:12.140Z,98707.31
2022-10-08T06:51:54.852Z,98702.88
2022-10-08T06:54:43.207Z,98693.47
2022-10-08T06:57:24.876Z,98689.38
2022-10-08T07:00:13.902Z,98688.75
2022-10-08T07:02:56.275Z,98677.97
2022-10-08T07:05:44.863Z,98673.72
2022-10-08T07:08:27.365Z,98669.09
2022-10-08T07:11:21.868Z,98670.94
2022-10-08T07:14:11.870Z,98660.63
2022-10-08T07:17:06.922Z,98658.56
2022-10-08T07:19:55.403Z,98654.94
2022-10-08T07:22:37.864Z,98641.84
2022-10-08T07:25:26.231Z,98651.56
2022-10-08T07:28:08.913Z,98641.88
2022-10-08T07:30:57.859Z,98634.94
2022-10-08T07:33:43.739Z,98633.31
2022-10-08T07:36:33.875Z,98611.38
2022-10-08T07:39:21.301Z,98620.72
2022-10-08T07:42:10.971Z,98616.13
2022-10-08T07:44:53.192Z,98612.63
2022-10-08T07:47:41.874Z,98601.63
2022-10-08T07:50:24.277Z,98591.09
2022-10-08T07:53:12.854Z,98581.72
2022-10-08T07:55:55.284Z,98584.06
2022-10-08T07:58:44.834Z,98579.09
2022-10-08T08:01:37.835Z,98572.50
2022-10-08T08:04:26.883Z,98574.44
2022-10-08T08:07:09.890Z,98566.31
2022-10-08T08:09:58.829Z,98557.75
2022-10-08T08:12:48.020Z,98551.88
2022-10-08T08:15:31.042Z,98546.78
2022-10-08T08:18:19.833Z,98546.78
2022-10-08T08:21:13.191Z,98539.84
2022-10-08T08:23:58.861Z,98534.34
2022-10-08T08:26:49.292Z,98530.63
2022-10-08T08:29:31.837Z,98531.34
2022-10-08T08:32:21.964Z,98517.78
2022-10-08T08:35:06.851Z,98513.53
2022-10-08T08:37:57.260Z,98509.44
2022-10-08T08:40:38.879Z,98508.06
2022-10-08T08:43:21.546Z,98501.69
2022-10-08T08:46:11.898Z,98499.41
2022-10-08T08:49:04.136Z,98490.91
2022-10-08T08:51:46.132Z,98483.78
2022-10-08T08:54:34.846Z,98482.00
2022-10-08T08:57:30.274Z,98465.66
2022-10-08T09:00:36.850Z,98468.06
2022-10-08T09:03:35.900Z,98470.13
2022-10-08T09:06:30.915Z,98458.44
2022-10-08T09:09:40.307Z,98450.31
2022-10-08T09:12:34.854Z,98443.16
2022-10-08T09:15:41.844Z,98439.59
2022-10-08T09:18:37.701Z,98436.59
2022-10-08T09:21:27.857Z,98433.47
2022-10-08T09:24:10.200Z,98428.34
2022-10-08T09:26:59.832Z,98420.91
2022-10-08T09:29:42.480Z,98418.75
2022-10-08T09:32:31.857Z,98414.69
2022-10-08T09:35:23.860Z,98415.78
2022-10-08T09:38:13.309Z,98409.28
2022-10-08T09:41:12.857Z,98392.19
2022-10-08T09:44:31.164Z,98399.50
2022-10-08T09:47:14.876Z,98391.25
2022-10-08T09:50:15.151Z,98385.97
2022-10-08T09:53:00.844Z,98383.97
2022-10-08T09:56:02.142Z,98382.06
2022-10-08T09:59:01.199Z,98376.69
2022-10-08T10:01:49.690Z,98370.88
2022-10-08T10:04:53.908Z,98374.66
2022-10-08T10:07:51.984Z,98356.94
2022-10-08T10:11:03.888Z,98362.84
2022-10-08T10:13:48.987Z,98360.59
2022-10-08T10:17:03.919Z,98359.72
2022-10-08T10:20:22.268Z,98354.53
2022-10-08T10:23:19.854Z,98348.22
2022-10-08T10:26:17.311Z,98346.97
2022-10-08T10:29:05.877Z,98352.09
2022-10-08T10:32:04.483Z,98346.75
2022-10-08T10:34:58.884Z,98350.28
2022-10-08T10:37:57.185Z,98346.63
2022-10-08T10:41:27.888Z,98353.22
2022-10-08T10:44:22.284Z,98337.13
2022-10-08T10:47:07.842Z,98342.69
2022-10-08T10:49:57.215Z,98341.47
2022-10-08T10:52:54.855Z,98329.09
2022-10-08T10:55:54.798Z,98332.75
2022-10-08T10:59:03.212Z,98338.34
2022-10-08T11:02:06.194Z,98331.94
2022-10-08T11:05:06.837Z,98327.38
2022-10-08T11:08:31.350Z,98332.50
2022-10-08T11:11:23.929Z,98326.66
2022-10-08T11:14:33.146Z,98313.69
2022-10-08T11:17:50.921Z,98324.19
2022-10-08T11:20:45.284Z,98321.03
2022-10-08T11:23:42.916Z,98323.72
2022-10-08T11:26:48.296Z,98323.97
2022-10-08T11:29:45.938Z,98316.22
2022-10-08T11:32:30.924Z,98320.34
2022-10-08T11:35:57.928Z,98315.13
2022-10-08T11:38:50.182Z,98311.69
2022-10-08T11:41:51.920Z,98313.41
2022-10-08T11:44:35.180Z,98313.94
2022-10-08T11:47:50.911Z,98315.44
2022-10-08T11:50:33.161Z,98318.47
2022-10-08T11:53:30.874Z,98317.16
2022-10-08T11:56:13.737Z,98318.53
2022-10-08T11:59:07.846Z,98311.53
2022-10-08T12:02:38.440Z,98313.03
2022-10-08T12:05:30.846Z,98314.44
2022-10-08T12:08:20.183Z,98315.25
2022-10-08T12:11:33.994Z,98312.44
2022-10-08T12:14:25.917Z,98308.47
2022-10-08T12:17:14.242Z,98312.13
2022-10-08T12:20:11.863Z,98317.31
2022-10-08T12:23:15.755Z,98314.44
2022-10-08T12:26:07.858Z,98318.06
2022-10-08T12:28:57.860Z,98322.38
2022-10-08T12:31:49.691Z,98317.47
2022-10-08T12:34:32.919Z,98318.50
2022-10-08T12:37:38.302Z,98319.03
2022-10-08T12:40:51.865Z,98330.06
2022-10-08T12:43:50.821Z,98325.06
2022-10-08T12:47:00.892Z,98327.31
2022-10-08T12:50:04.845Z,98326.13
2022-10-08T12:52:47.150Z,98332.19
2022-10-08T12:55:38.039Z,98329.06
2022-10-08T12:58:43.208Z,98335.06
2022-10-08T13:01:33.081Z,98332.09
2022-10-08T13:04:36.198Z,98331.47
2022-10-08T13:07:35.848Z,98331.75
2022-10-08T13:10:28.293Z,98342.63
2022-10-08T13:13:48.196Z,98344.97
2022-10-08T13:16:35.261Z,98344.59
2022-10-08T13:19:34.857Z,98348.78
2022-10-08T13:22:34.249Z,98349.69
2022-10-08T13:25:43.904Z,98354.50
2022-10-08T13:28:59.028Z,98360.53
2022-10-08T13:31:42.992Z,98353.38
2022-10-08T13:34:25.196Z,98357.31
2022-10-08T13:37:19.898Z,98368.53
2022-10-08T13:40:03.349Z,98362.06
2022-10-08T13:43:06.857Z,98362.16
2022-10-08T13:45:55.852Z,98362.06
2022-10-08T13:48:51.909Z,98366.91
2022-10-08T13:51:34.166Z,98371.97
2022-10-08T13:54:28.833Z,98366.31
2022-10-08T13:57:11.315Z,98376.03
2022-10-08T13:59:59.852Z,98383.28
2022-10-08T14:02:42.245Z,98378.47
2022-10-08T14:05:31.934Z,98394.34
2022-10-08T14:08:27.205Z,98380.56
2022-10-08T14:11:15.923Z,98386.69
2022-10-08T14:13:58.323Z,98387.47
2022-10-08T14:16:47.326Z,98391.19
2022-10-08T14:19:41.733Z,98391.97
2022-10-08T14:22:31.842Z,98391.03
2022-10-08T14:25:31.967Z,98399.06
2022-10-08T14:28:20.188Z,98394.25
2022-10-08T14:31:02.929Z,98403.56
2022-10-08T14:33:45.083Z,98395.38
2022-10-08T14:36:36.889Z,98410.13
2022-10-08T14:39:25.191Z,98409.84
2022-10-08T14:42:07.876Z,98410.41
2022-10-08T14:44:56.146Z,98413.56
2022-10-08T14:47:37.889Z,98412.56
2022-10-08T14:50:26.135Z,98419.09
2022-10-08T14:53:07.839Z,98413.84
2022-10-08T14:56:11.571Z,98421.66
2022-10-08T14:58:55.113Z,98421.47
2022-10-08T15:01:44.907Z,98433.28
2022-10-08T15:04:27.171Z,98433.09
2022-10-08T15:07:15.838Z,98430.59
2022-10-08T15:09:58.139Z,98439.44
2022-10-08T15:12:47.193Z,98449.94
2022-10-08T15:15:29.156Z,98442.09
2022-10-08T15:18:25.851Z,98450.38
2022-10-08T15:21:15.267Z,98454.41
2022-10-08T15:23:57.913Z,98456.03
2022-10-08T15:26:46.156Z,98454.91
2022-10-08T15:29:28.837Z,98453.75
2022-10-08T15:32:17.101Z,98458.59
2022-10-08T15:34:59.910Z,98456.19
2022-10-08T15:37:48.216Z,98454.94
2022-10-08T15:40:29.835Z,98461.69
2022-10-08T15:43:18.125Z,98458.25
2022-10-08T15:46:00.230Z,98465.47
2022-10-08T15:48:48.116Z,98471.50
2022-10-08T15:51:31.835Z,98476.09
2022-10-08T15:54:22.584Z,98483.22
2022-10-08T15:57:05.901Z,98480.25
2022-10-08T15:59:54.726Z,98476.78
2022-10-08T16:02:48.069Z,98486.13
2022-10-08T16:05:36.141Z,98488.06
2022-10-08T16:08:18.922Z,98489.47
2022-10-08T16:11:17.188Z,98490.28
2022-10-08T16:14:04.898Z,98487.16
2022-10-08T16:16:54.201Z,98490.03
2022-10-08T16:19:42.830Z,98495.69
2022-10-08T16:22:32.490Z,98499.94
2022-10-08T16:25:21.110Z,98501.19
2022-10-08T16:28:02.932Z,98503.03
2022-10-08T16:30:52.171Z,98506.25
2022-10-08T16:33:34.899Z,98515.78
2022-10-08T16:36:23.201Z,98523.56
2022-10-08T16:39:06.817Z,98533.25
2022-10-08T16:41:56.966Z,98527.13
2022-10-08T16:44:39.168Z,98515.72
2022-10-08T16:47:27.828Z,98519.03
2022-10-08T16:50:10.167Z,98524.16
2022-10-08T16:52:58.839Z,98530.63
2022-10-08T16:55:47.136Z,98523.81
2022-10-08T16:58:35.831Z,98527.81
2022-10-08T17:01:24.874Z,98532.53
2022-10-08T17:04:14.844Z,98532.78
2022-10-08T17:06:57.297Z,98534.97
2022-10-08T17:09:45.907Z,98531.13
2022-10-08T17:12:29.258Z,98540.41
2022-10-08T17:15:17.958Z,98530.69
2022-10-08T17:18:13.851Z,98541.97
2022-10-08T17:20:59.856Z,98536.78
2022-10-08T17:23:49.846Z,98542.41
2022-10-08T17:26:33.115Z,98546.56
2022-10-08T17:29:25.847Z,98537.66
2022-10-08T17:32:15.143Z,98547.78
2022-10-08T17:34:57.826Z,98535.00
2022-10-08T17:37:42.317Z,98544.28
2022-10-08T17:40:31.834Z,98543.44
2022-10-08T17:43:14.486Z,98544.41
2022-10-08T17:46:04.003Z,98536.63
2022-10-08T17:48:53.184Z,98543.22
2022-10-08T17:51:37.868Z,98546.88
2022-10-08T17:54:21.643Z,98534.88
2022-10-08T17:57:10.825Z,98539.63
2022-10-08T17:59:59.827Z,98538.41
2022-10-08T18:02:51.340Z,98546.97
2022-10-08T18:05:40.847Z,98537.41
2022-10-08T18:08:23.288Z,98539.00
2022-10-08T18:11:14.847Z,98542.50
2022-10-08T18:14:03.835Z,98540.38
2022-10-08T18:16:52.108Z,98541.84
2022-10-08T18:19:40.826Z,98549.72
2022-10-08T18:22:33.012Z,98546.56
2022-10-08T18:25:22.122Z,98555.72
2022-10-08T18:28:04.927Z,98547.22
2022-10-08T18:30:55.294Z,98552.22
2022-10-08T18:33:40.180Z,98552.31
2022-10-08T18:36:32.258Z,98556.03
2022-10-08T18:39:17.840Z,98549.28
2022-10-08T18:42:07.327Z,98554.84
2022-10-08T18:44:48.871Z,98552.69
2022-10-08T18:47:31.109Z,98548.53
2022-10-08T18:50:21.182Z,98547.03
2022-10-08T18:53:12.028Z,98554.13
2022-10-08T18:55:57.826Z,98554.66
2022-10-08T18:58:47.263Z,98551.28
2022-10-08T19:01:35.030Z,98553.88
2022-10-08T19:04:20.255Z,98546.00
2022-10-08T19:07:09.872Z,98547.81
2022-10-08T19:09:52.250Z,98540.50
2022-10-08T19:12:43.826Z,98539.63
2022-10-08T19:15:32.973Z,98543.31
2022-10-08T19:18:29.801Z,98537.81
2022-10-08T19:21:20.881Z,98531.78
2022-10-08T19:24:05.246Z,98547.91
2022-10-08T19:26:54.842Z,98548.19
2022-10-08T19:29:37.481Z,98547.81
2022-10-08T19:32:26.891Z,98541.94
2022-10-08T19:35:09.151Z,98538.41
2022-10-08T19:37:57.858Z,98544.69
2022-10-08T19:40:42.110Z,98534.97
2022-10-08T19:43:30.857Z,98537.28
2022-10-08T19:46:14.317Z,98539.47
2022-10-08T19:49:08.842Z,98539.34
2022-10-08T19:51:58.829Z,98532.78
2022-10-08T19:54:48.195Z,98532.22
2022-10-08T19:57:30.169Z,98532.41
2022-10-08T20:00:19.812Z,98540.91
2022-10-08T20:03:02.193Z,98545.91
2022-10-08T20:05:50.855Z,98540.75
2022-10-08T20:08:33.163Z,98540.25
2022-10-08T20:11:24.818Z,98541.22
2022-10-08T20:14:08.117Z,98524.50
2022-10-08T20:16:57.852Z,98535.53
2022-10-08T20:19:46.158Z,98525.16
2022-10-08T20:22:28.838Z,98530.00
2022-10-08T20:25:21.559Z,98525.78
2022-10-08T20:28:04.842Z,98525.25
2022-10-08T20:30:54.680Z,98524.59
2022-10-08T20:33:37.174Z,98532.97
2022-10-08T20:36:25.889Z,98525.34
2022-10-08T20:39:09.522Z,98527.91
2022-10-08T20:41:59.844Z,98523.41
2022-10-08T20:44:42.068Z,98527.63
2022-10-08T20:47:30.875Z,98522.44
2022-10-08T20:50:14.094Z,98525.34
2022-10-08T20:53:02.804Z,98527.97
2022-10-08T20:55:48.943Z,98526.31
2022-10-08T20:58:39.850Z,98529.91
2022-10-08T21:01:31.233Z,98520.00
2022-10-08T21:04:20.111Z,98517.63
2022-10-08T21:07:01.815Z,98519.84
2022-10-08T21:09:44.004Z,98516.91
2022-10-08T21:12:32.854Z,98519.88
2022-10-08T21:15:22.461Z,98511.91
2022-10-08T21:18:05.852Z,98514.66
2022-10-08T21:21:01.699Z,98514.47
2022-10-08T21:23:51.873Z,98517.72
2022-10-08T21:26:38.336Z,98511.41
2022-10-08T21:29:26.802Z,98508.19
2022-10-08T21:32:09.059Z,98508.19
2022-10-08T21:34:57.822Z,98511.25
2022-10-08T21:37:48.452Z,98500.31
2022-10-08T21:40:30.975Z,98507.75
2022-10-08T21:43:22.220Z,98507.88
2022-10-08T21:46:12.490Z,98507.28
2022-10-08T21:48:56.876Z,98512.13
2022-10-08T21:51:46.172Z,98497.75
2022-10-08T21:54:31.757Z,98505.19
2022-10-08T21:57:16.333Z,98504.22
2022-10-08T22:00:06.931Z,98507.59
2022-10-08T22:03:16.736Z,98502.59
2022-10-08T22:06:10.812Z,98509.22
2022-10-08T22:08:53.116Z,98513.28
2022-10-08T22:11:43.144Z,98511.81
2022-10-08T22:14:25.085Z,98515.53
2022-10-08T22:17:13.807Z,98507.44
2022-10-08T22:20:08.822Z,98518.94
2022-10-08T22:22:51.339Z,98518.31
2022-10-08T22:25:40.882Z,98514.75
2022-10-08T22:28:30.818Z,98510.38
2022-10-08T22:31:15.881Z,98514.69
2022-10-08T22:34:05.228Z,98523.75
2022-10-08T22:36:50.816Z,98519.56
2022-10-08T22:39:33.048Z,98517.78
2022-10-08T22:42:21.851Z,98514.38
2022-10-08T22:45:04.089Z,98514.41
2022-10-08T22:47:52.799Z,98520.41
2022-10-08T22:50:43.717Z,98525.72
2022-10-08T22:53:32.806Z,98525.91
2022-10-08T22:56:26.786Z,98528.03
2022-10-08T22:59:09.577Z,98537.38
2022-10-08T23:01:58.868Z,98538.38
2022-10-08T23:04:42.013Z,98538.22
2022-10-08T23:07:30.808Z,98534.31
2022-10-08T23:10:19.713Z,98532.69
2022-10-08T23:13:08.815Z,98532.41
2022-10-08T23:15:51.145Z,98537.56
2022-10-08T23:18:41.890Z,98540.47
2022-10-08T23:21:25.116Z,98543.25
2022-10-08T23:24:13.826Z,98547.13
2022-10-08T23:27:05.347Z,98558.63
2022-10-08T23:29:56.795Z,98550.22
2022-10-08T23:32:46.210Z,98552.28
2022-10-08T23:35:35.093Z,98553.09
2022-10-08T23:38:17.828Z,98555.03
2022-10-08T23:41:09.226Z,98561.03
2022-10-08T23:43:55.821Z,98558.00
2022-10-08T23:46:38.089Z,98558.47
2022-10-08T23:49:26.810Z,98571.38
2022-10-08T23:52:15.796Z,98561.97
2022-10-08T23:55:04.800Z,98563.78
2022-10-08T23:57:46.989Z,98564.72
